Aérodrome :
LOGIN :

S'inscrire | Disclaimer

   EN    FR    IT 

 










Légende :    VFR   VFR Marginal   IFR   IFR Intensif   IFR Très Intensif
Visi : 
Plafond : 
>= 8 km
>= 3000ft
5 à 8 km
1000 à 3000 ft
1500m à 5 km
500 à 1000 ft
800 à 1500m
200 à 500 ft
< 800m
< 200 ft
Symboles :   Orages  Brouillard  Fortes neiges  Fortes précipitations  Vent > 20 kt
SIGMETs :   Divers  Orages  Givrage  Turbulence  Onde Orograph.  Cendres Volcan.







- Altitude de l'aérodrome : 325 ft
- Code IATA : BES
- Voir les cartes d'approche


LFRB - Brest

DERNIER METAR :
  • 211330Z AUTO VRB03KT 9999 OVC027 13/07 Q1033 NOSIG

METARs EXPIRÉS :
  • 211300Z AUTO 00000KT 9999 SCT024 OVC029 13/08 Q1034 NOSIG
  • 211230Z AUTO 00000KT 9999 OVC029 13/07 Q1034 NOSIG
  • 211200Z AUTO 00000KT 9999 OVC026 12/08 Q1034 NOSIG
  • 211130Z AUTO 00000KT 9999 BKN020 OVC026 12/07 Q1034 NOSIG
  • 211100Z AUTO VRB02KT 9999 FEW017 BKN030 13/08 Q1034 NOSIG

TAF TAF LFRB
Valide du 21 à 12h jusqu'au 22 à 18h UTC


211100Z 2112/2218 VRB03KT 9999 FEW015 OVC031
TEMPO 2200/2206 OVC008
BECMG 2214/2216 SCT030
ATIS : +33 2 98 32 02 71
Pas de NOTAMs connus pour ce terrain.



MET'MAP, la Météo Aéronautique d'un coup d'oeil ! - Copyright ORBIFLY Décembre 2007 - Disclaimer

ORBIFLY MET'MAP TEAM :

Programmation & Développement : Alexandra Zaïnal
Conception & Développement : Baudouin d'Aumeries
Co-Programmation & Développement : Marc-Olivier Méhu
Soutien technique & logistique : Manuel Goepfert

Contact : metmap@orbifly.com




SOURCES & CREDITS :

   NOAA